Time;durP1;ratioP1;P1;durP2;ratioP2;P2;SDS_P1;SDS_P2;PMS_P1;PMS_P2;Temp;Humidity;BMP_temperature;BMP_pressure;BME280_temperature;BME280_humidity;BME280_pressure;Samples;Min_cycle;Max_cycle;Signal;HPM_P1;HPM_P2
2023/03/04 00:01:06;;;;;;;24.63;4.90;;;;;;;4.84;100.00;102473.91;5074143;28;20032;-70
2023/03/04 00:03:31;;;;;;;24.88;4.65;;;;;;;4.71;100.00;102471.44;5074322;28;20029;-69
2023/03/04 00:05:57;;;;;;;22.08;4.88;;;;;;;4.75;100.00;102480.34;5074067;28;20028;-66
2023/03/04 00:08:22;;;;;;;22.60;4.70;;;;;;;4.73;100.00;102480.25;5074362;28;20046;-67
2023/03/04 00:10:47;;;;;;;24.05;4.90;;;;;;;4.77;100.00;102481.34;5073973;28;20071;-66
2023/03/04 00:13:13;;;;;;;23.65;5.05;;;;;;;4.74;100.00;102476.84;5073909;28;20524;-67
2023/03/04 00:15:38;;;;;;;24.48;5.10;;;;;;;4.76;100.00;102484.78;5074112;28;20028;-69
2023/03/04 00:18:04;;;;;;;24.45;4.97;;;;;;;4.72;100.00;102487.25;5074070;28;20024;-71
2023/03/04 00:20:29;;;;;;;23.13;5.13;;;;;;;4.72;100.00;102483.72;5074181;28;20025;-74
2023/03/04 00:22:54;;;;;;;23.85;5.30;;;;;;;4.70;100.00;102474.88;5074041;28;20429;-68
2023/03/04 00:25:19;;;;;;;24.50;5.40;;;;;;;4.66;100.00;102470.28;5072323;28;20393;-67
2023/03/04 00:27:46;;;;;;;23.33;5.10;;;;;;;4.65;100.00;102468.50;5079805;28;20050;-66
2023/03/04 00:30:11;;;;;;;23.42;5.03;;;;;;;4.72;100.00;102468.91;5082632;28;20045;-64
2023/03/04 00:32:37;;;;;;;25.23;5.45;;;;;;;4.72;100.00;102463.66;5083281;28;20033;-68
2023/03/04 00:35:03;;;;;;;23.77;5.10;;;;;;;4.75;100.00;102467.25;5082146;28;20119;-70
2023/03/04 00:37:28;;;;;;;23.25;4.90;;;;;;;4.76;100.00;102469.97;5079157;28;20035;-68
2023/03/04 00:39:53;;;;;;;26.58;4.93;;;;;;;4.78;100.00;102468.34;5080359;28;20028;-65
2023/03/04 00:42:19;;;;;;;25.77;4.95;;;;;;;4.80;100.00;102473.66;5078733;28;20122;-66
2023/03/04 00:44:44;;;;;;;24.23;4.93;;;;;;;4.86;100.00;102472.28;5077836;28;20074;-66
2023/03/04 00:47:09;;;;;;;24.05;4.65;;;;;;;4.84;100.00;102473.91;5075101;28;20032;-66
2023/03/04 00:49:36;;;;;;;23.05;4.97;;;;;;;4.79;100.00;102459.66;5073496;28;20064;-71
2023/03/04 00:52:02;;;;;;;25.38;4.80;;;;;;;4.81;100.00;102465.88;5073324;28;20101;-68
2023/03/04 00:54:27;;;;;;;23.00;4.75;;;;;;;4.87;100.00;102467.94;5073150;28;20471;-66
2023/03/04 00:56:52;;;;;;;23.05;4.47;;;;;;;4.91;100.00;102471.59;5073284;28;20471;-66
2023/03/04 00:59:18;;;;;;;23.30;4.80;;;;;;;4.89;100.00;102467.19;5072785;28;20056;-65
2023/03/04 01:01:43;;;;;;;24.50;4.88;;;;;;;4.93;100.00;102468.25;5073074;28;20032;-67
2023/03/04 01:04:08;;;;;;;23.15;4.40;;;;;;;4.89;100.00;102475.06;5073052;28;20105;-68
2023/03/04 01:06:34;;;;;;;22.73;4.50;;;;;;;4.85;100.00;102470.47;5072958;28;20031;-67
2023/03/04 01:08:59;;;;;;;24.45;4.90;;;;;;;4.83;100.00;102471.19;5072893;28;20374;-65
2023/03/04 01:11:24;;;;;;;25.45;4.72;;;;;;;4.81;100.00;102471.13;5073018;28;20035;-67
2023/03/04 01:13:50;;;;;;;22.02;4.28;;;;;;;4.79;100.00;102475.38;5072838;28;20024;-70
2023/03/04 01:16:15;;;;;;;24.80;4.68;;;;;;;4.77;100.00;102477.00;5073126;28;20028;-66
2023/03/04 01:18:41;;;;;;;22.17;4.40;;;;;;;4.77;100.00;102474.38;5073330;28;20024;-68
2023/03/04 01:21:06;;;;;;;24.00;4.60;;;;;;;4.74;100.00;102474.22;5072698;28;20028;-66
2023/03/04 01:23:31;;;;;;;24.45;4.80;;;;;;;4.67;100.00;102474.69;5072802;28;20123;-71
2023/03/04 01:25:57;;;;;;;23.92;4.40;;;;;;;4.73;100.00;102469.78;5072960;28;20031;-68
2023/03/04 01:28:22;;;;;;;22.20;3.92;;;;;;;4.71;100.00;102471.44;5072562;28;20025;-65
2023/03/04 01:30:48;;;;;;;22.15;3.90;;;;;;;4.76;100.00;102471.69;5072835;28;20440;-68
2023/03/04 01:33:13;;;;;;;22.90;3.95;;;;;;;4.72;100.00;102463.66;5072720;28;20516;-66
2023/03/04 01:35:38;;;;;;;22.70;3.90;;;;;;;4.74;100.00;102468.97;5072431;28;20028;-66
2023/03/04 01:38:04;;;;;;;23.92;4.13;;;;;;;4.71;100.00;102461.84;5072802;28;20183;-66
2023/03/04 01:40:30;;;;;;;23.42;4.07;;;;;;;4.67;100.00;102465.13;5072377;28;20518;-66
2023/03/04 01:42:55;;;;;;;23.10;3.92;;;;;;;4.69;100.00;102463.50;5072582;28;20183;-66
2023/03/04 01:45:21;;;;;;;20.58;3.65;;;;;;;4.65;100.00;102460.63;5072594;28;20119;-66
2023/03/04 01:47:48;;;;;;;21.35;3.50;;;;;;;4.62;100.00;102453.50;5072426;28;20082;-67
2023/03/04 01:50:22;;;;;;;21.38;3.92;;;;;;;4.63;100.00;102457.00;5068628;28;20059;-66
2023/03/04 01:52:48;;;;;;;25.88;4.25;;;;;;;4.66;100.00;102449.31;5069045;28;20055;-66
2023/03/04 01:55:19;;;;;;;22.42;3.75;;;;;;;4.66;100.00;102442.38;5072453;28;20063;-66
2023/03/04 01:57:45;;;;;;;21.65;3.92;;;;;;;4.64;100.00;102449.22;5068468;28;20078;-67
2023/03/04 02:00:10;;;;;;;22.45;3.90;;;;;;;4.65;100.00;102437.06;5072729;28;20418;-66
2023/03/04 02:02:36;;;;;;;20.60;3.92;;;;;;;4.65;100.00;102432.69;5072299;28;20070;-69
2023/03/04 02:05:02;;;;;;;18.38;3.67;;;;;;;4.63;100.00;102436.06;5071261;28;20068;-66
2023/03/04 02:07:27;;;;;;;24.73;3.88;;;;;;;4.63;100.00;102434.34;5072445;28;20021;-66
2023/03/04 02:09:52;;;;;;;21.52;4.00;;;;;;;4.64;100.00;102425.66;5072929;28;20566;-66
2023/03/04 02:12:18;;;;;;;22.27;4.15;;;;;;;4.64;100.00;102422.16;5076279;28;20074;-66
2023/03/04 02:14:43;;;;;;;23.15;4.30;;;;;;;4.60;100.00;102423.72;5072386;28;20391;-66
2023/03/04 02:17:11;;;;;;;23.95;4.10;;;;;;;4.63;100.00;102420.34;5076227;28;20063;-67
2023/03/04 02:19:53;;;;;;;22.40;3.97;;;;;;;4.63;100.00;102426.50;5076133;28;20024;-65
2023/03/04 02:22:18;;;;;;;21.40;3.92;;;;;;;4.62;100.00;102429.03;5072800;28;20025;-73
2023/03/04 02:25:02;;;;;;;22.02;4.07;;;;;;;4.60;100.00;102430.66;5076218;28;20078;-67
2023/03/04 02:27:27;;;;;;;22.63;4.10;;;;;;;4.56;100.00;102419.13;5074170;28;20029;-67
2023/03/04 02:29:53;;;;;;;24.23;4.20;;;;;;;4.58;100.00;102420.09;5075921;28;20021;-65
2023/03/04 02:32:18;;;;;;;22.95;4.10;;;;;;;4.58;100.00;102416.59;5076078;28;20433;-66
2023/03/04 02:34:48;;;;;;;24.77;4.10;;;;;;;4.53;100.00;102417.22;5075900;28;20036;-65
2023/03/04 02:37:15;;;;;;;22.85;3.95;;;;;;;4.49;100.00;102415.25;5071796;28;20044;-70
2023/03/04 02:39:43;;;;;;;25.00;4.13;;;;;;;4.47;100.00;102419.53;5075991;28;20061;-65
2023/03/04 02:42:09;;;;;;;22.20;3.80;;;;;;;4.49;100.00;102411.75;5075688;28;20051;-66
2023/03/04 02:44:40;;;;;;;21.80;3.90;;;;;;;4.55;100.00;102412.06;5075661;28;20115;-68
2023/03/04 02:47:08;;;;;;;21.83;3.83;;;;;;;4.50;100.00;102411.84;5075573;28;20474;-67
2023/03/04 02:49:35;;;;;;;20.85;3.83;;;;;;;4.47;100.00;102408.13;5075812;28;20067;-66
2023/03/04 02:52:05;;;;;;;22.13;3.97;;;;;;;4.42;100.00;102405.25;5075677;28;20418;-65
2023/03/04 02:54:31;;;;;;;21.88;3.90;;;;;;;4.44;100.00;102406.28;5075364;28;20067;-65
2023/03/04 02:57:00;;;;;;;21.45;3.85;;;;;;;4.43;100.00;102401.84;5075918;28;20467;-66
2023/03/04 02:59:25;;;;;;;21.10;3.58;;;;;;;4.44;100.00;102398.41;5075241;28;20069;-65
2023/03/04 03:01:51;;;;;;;18.48;3.70;;;;;;;4.43;100.00;102399.22;5075312;28;20025;-66
2023/03/04 03:04:17;;;;;;;22.13;3.90;;;;;;;4.45;100.00;102394.94;5075514;28;20024;-65
2023/03/04 03:06:42;;;;;;;20.83;3.97;;;;;;;4.45;100.00;102394.94;5075622;28;20489;-66
2023/03/04 03:09:07;;;;;;;20.83;3.65;;;;;;;4.42;100.00;102392.16;5075168;28;20073;-68
2023/03/04 03:11:33;;;;;;;22.08;3.80;;;;;;;4.43;100.00;102395.72;5075382;28;20032;-65
2023/03/04 03:13:58;;;;;;;20.70;3.78;;;;;;;4.42;100.00;102397.41;5075073;28;20107;-66
2023/03/04 03:16:24;;;;;;;21.05;3.78;;;;;;;4.44;100.00;102392.25;5075464;28;20033;-68
2023/03/04 03:18:50;;;;;;;22.20;3.72;;;;;;;4.44;100.00;102387.94;5075329;28;20021;-66
2023/03/04 03:21:15;;;;;;;20.95;3.80;;;;;;;4.43;100.00;102390.47;5075002;28;20032;-66
2023/03/04 03:23:41;;;;;;;23.17;4.05;;;;;;;4.48;100.00;102387.25;5075009;28;20024;-66
2023/03/04 03:26:06;;;;;;;21.15;3.90;;;;;;;4.43;100.00;102391.38;5075241;28;20021;-66
2023/03/04 03:28:32;;;;;;;19.63;3.78;;;;;;;4.41;100.00;102387.75;5075138;28;20115;-69
2023/03/04 03:30:57;;;;;;;21.27;4.00;;;;;;;4.42;100.00;102383.44;5075064;28;20471;-66
2023/03/04 03:33:22;;;;;;;21.45;4.15;;;;;;;4.42;100.00;102388.66;5074766;28;20032;-66
2023/03/04 03:35:48;;;;;;;21.45;3.78;;;;;;;4.39;100.00;102388.50;5074803;28;20498;-67
2023/03/04 03:38:13;;;;;;;22.77;4.03;;;;;;;4.39;100.00;102384.16;5074590;28;20387;-67
2023/03/04 03:40:38;;;;;;;21.77;3.83;;;;;;;4.46;100.00;102381.03;5074467;28;20052;-66
2023/03/04 03:43:04;;;;;;;22.63;4.00;;;;;;;4.37;100.00;102385.81;5074638;28;20111;-67
2023/03/04 03:45:29;;;;;;;22.90;3.72;;;;;;;4.35;100.00;102375.25;5074686;28;20529;-68
2023/03/04 03:47:55;;;;;;;22.90;4.43;;;;;;;4.34;100.00;102375.16;5074476;28;20025;-67
2023/03/04 03:50:20;;;;;;;19.60;3.70;;;;;;;4.34;100.00;102376.06;5074535;28;20446;-67
2023/03/04 03:52:45;;;;;;;20.73;3.90;;;;;;;4.35;100.00;102375.25;5074581;28;20032;-66
2023/03/04 03:55:11;;;;;;;22.75;4.00;;;;;;;4.31;100.00;102380.22;5074409;28;20119;-65
2023/03/04 03:57:36;;;;;;;21.33;4.13;;;;;;;4.32;100.00;102375.06;5074333;28;20085;-66
2023/03/04 04:00:04;;;;;;;22.50;3.90;;;;;;;4.32;100.00;102372.44;5074341;28;20116;-65
2023/03/04 04:02:29;;;;;;;20.17;3.80;;;;;;;4.32;100.00;102379.41;5074289;28;20454;-65
2023/03/04 04:04:54;;;;;;;21.75;4.03;;;;;;;4.32;100.00;102384.63;5074304;28;20066;-65
2023/03/04 04:07:20;;;;;;;20.15;3.90;;;;;;;4.29;100.00;102380.13;5074226;28;20058;-67
2023/03/04 04:09:46;;;;;;;23.08;3.72;;;;;;;4.28;100.00;102375.72;5074076;28;20098;-67
2023/03/04 04:12:14;;;;;;;20.77;3.72;;;;;;;4.27;100.00;102386.13;5074452;28;20190;-65
2023/03/04 04:14:39;;;;;;;21.83;3.80;;;;;;;4.26;100.00;102377.34;5073940;28;20028;-67
2023/03/04 04:17:05;;;;;;;22.65;4.07;;;;;;;4.22;100.00;102380.59;5074266;28;20032;-65
2023/03/04 04:19:30;;;;;;;21.15;3.65;;;;;;;4.23;100.00;102378.91;5074166;28;20430;-66
2023/03/04 04:21:56;;;;;;;21.05;3.85;;;;;;;4.24;100.00;102386.84;5073800;28;20511;-65
2023/03/04 04:24:21;;;;;;;20.77;3.50;;;;;;;4.25;100.00;102372.03;5073723;28;20532;-65
2023/03/04 04:26:47;;;;;;;21.40;4.00;;;;;;;4.25;100.00;102382.50;5073975;28;20028;-67
2023/03/04 04:29:13;;;;;;;20.83;3.50;;;;;;;4.28;100.00;102380.03;5073684;28;20028;-67
2023/03/04 04:31:39;;;;;;;20.88;4.15;;;;;;;4.21;100.00;102378.81;5073665;28;20471;-65
2023/03/04 04:34:04;;;;;;;19.48;3.78;;;;;;;4.19;100.00;102381.38;5073354;28;20035;-65
2023/03/04 04:36:29;;;;;;;23.13;3.75;;;;;;;4.22;100.00;102380.59;5073544;28;20119;-66
2023/03/04 04:38:55;;;;;;;21.98;4.03;;;;;;;4.18;100.00;102384.78;5073529;28;20052;-67
2023/03/04 04:41:24;;;;;;;19.92;3.92;;;;;;;4.24;100.00;102388.53;5073504;28;20048;-66
2023/03/04 04:43:49;;;;;;;20.50;3.70;;;;;;;4.19;100.00;102381.38;5073328;28;20430;-68
2023/03/04 04:46:15;;;;;;;22.27;3.60;;;;;;;4.18;100.00;102390.03;5069320;28;20082;-67
2023/03/04 04:48:41;;;;;;;19.95;3.80;;;;;;;4.19;100.00;102389.22;5073498;28;20082;-66
2023/03/04 04:51:07;;;;;;;20.23;3.58;;;;;;;4.18;100.00;102384.78;5073539;28;20077;-66
2023/03/04 04:53:33;;;;;;;20.67;4.20;;;;;;;4.17;100.00;102390.81;5073451;28;20402;-66
2023/03/04 04:55:58;;;;;;;20.52;3.80;;;;;;;4.25;100.00;102392.97;5073405;28;20029;-68
2023/03/04 04:58:24;;;;;;;20.88;3.95;;;;;;;4.23;100.00;102392.00;5073120;28;20025;-66
2023/03/04 05:00:49;;;;;;;20.92;3.70;;;;;;;4.23;100.00;102386.75;5073470;28;20021;-67
2023/03/04 05:03:14;;;;;;;20.67;3.70;;;;;;;4.19;100.00;102389.22;5073059;28;20032;-66
2023/03/04 05:05:40;;;;;;;20.58;3.85;;;;;;;4.22;100.00;102391.06;5072940;28;20522;-66
2023/03/04 05:08:05;;;;;;;20.25;3.63;;;;;;;4.13;100.00;102386.25;5073131;28;20037;-69
2023/03/04 05:10:30;;;;;;;22.02;3.65;;;;;;;4.17;100.00;102388.22;5073043;28;20494;-68
2023/03/04 05:12:56;;;;;;;23.75;4.05;;;;;;;4.08;100.00;102390.34;5072858;28;20077;-66
2023/03/04 05:15:21;;;;;;;21.73;3.70;;;;;;;4.12;100.00;102387.06;5073308;28;20051;-69
2023/03/04 05:17:46;;;;;;;22.30;4.10;;;;;;;4.10;100.00;102388.69;5072893;28;20444;-66
2023/03/04 05:20:12;;;;;;;22.02;3.72;;;;;;;4.11;100.00;102377.41;5072704;28;20035;-66
2023/03/04 05:22:38;;;;;;;21.00;3.22;;;;;;;4.13;100.00;102386.25;5073007;28;20028;-66
2023/03/04 05:25:03;;;;;;;21.10;3.63;;;;;;;4.17;100.00;102385.59;5072614;28;20036;-67
2023/03/04 05:27:29;;;;;;;18.83;3.70;;;;;;;4.13;100.00;102386.25;5072668;28;20107;-65
2023/03/04 05:29:58;;;;;;;20.77;3.70;;;;;;;4.14;100.00;102382.81;5072918;28;20025;-66
2023/03/04 05:32:23;;;;;;;22.05;3.80;;;;;;;4.12;100.00;102387.06;5072695;28;20029;-66
2023/03/04 05:34:49;;;;;;;20.63;3.60;;;;;;;4.13;100.00;102383.63;5072917;28;20093;-66
2023/03/04 05:37:14;;;;;;;22.70;3.80;;;;;;;4.11;100.00;102387.00;5073089;28;20378;-65
2023/03/04 05:39:39;;;;;;;20.33;4.00;;;;;;;4.13;100.00;102391.47;5072554;28;20534;-67
2023/03/04 05:42:05;;;;;;;21.90;4.10;;;;;;;4.13;100.00;102387.97;5072525;28;20085;-66
2023/03/04 05:44:30;;;;;;;17.63;3.60;;;;;;;4.13;100.00;102396.72;5071555;28;20043;-67
2023/03/04 05:46:56;;;;;;;20.67;3.70;;;;;;;4.14;100.00;102389.78;5072735;28;20162;-65
2023/03/04 05:49:21;;;;;;;21.70;3.83;;;;;;;4.13;100.00;102388.84;5072533;28;20467;-67
2023/03/04 05:51:46;;;;;;;21.45;3.90;;;;;;;4.12;100.00;102394.94;5072482;28;20027;-66
2023/03/04 05:54:12;;;;;;;20.23;3.88;;;;;;;4.11;100.00;102400.09;5072412;28;20024;-66
2023/03/04 05:56:37;;;;;;;19.92;3.60;;;;;;;4.08;100.00;102394.66;5072631;28;20040;-66
2023/03/04 05:59:03;;;;;;;19.48;3.50;;;;;;;4.08;100.00;102398.19;5072219;28;20028;-65
2023/03/04 06:01:30;;;;;;;18.98;3.70;;;;;;;4.11;100.00;102407.94;5072307;28;20543;-65
2023/03/04 06:03:55;;;;;;;18.77;3.80;;;;;;;4.11;100.00;102398.34;5072323;28;20036;-67
2023/03/04 06:06:21;;;;;;;20.40;3.72;;;;;;;4.07;100.00;102399.00;5072487;28;20039;-66
2023/03/04 06:08:46;;;;;;;18.92;3.60;;;;;;;4.11;100.00;102400.97;5072327;28;20078;-69
2023/03/04 06:11:12;;;;;;;19.15;3.42;;;;;;;4.08;100.00;102403.41;5072379;28;20035;-65
2023/03/04 06:13:37;;;;;;;18.50;3.10;;;;;;;4.05;100.00;102398.03;5072343;28;20160;-65
2023/03/04 06:16:03;;;;;;;19.50;3.60;;;;;;;4.06;100.00;102402.41;5078582;28;20037;-65
2023/03/04 06:18:28;;;;;;;18.50;3.72;;;;;;;4.07;100.00;102404.22;5080296;28;20036;-65
2023/03/04 06:21:01;;;;;;;18.52;3.35;;;;;;;4.18;100.00;102404.84;5081608;28;20028;-64
2023/03/04 06:23:26;;;;;;;;;;;;;;;4.19;100.00;102407.53;5079632;28;20032;-65
2023/03/04 06:25:56;;;;;;;19.92;4.00;;;;;;;4.13;100.00;102409.78;5080880;28;19916;-67
2023/03/04 06:28:21;;;;;;;20.13;3.67;;;;;;;4.08;100.00;102413.88;5081851;28;20438;-65
2023/03/04 06:30:47;;;;;;;20.00;3.60;;;;;;;4.03;100.00;102414.44;5077910;28;20025;-65
2023/03/04 06:33:12;;;;;;;20.17;3.50;;;;;;;4.07;100.00;102417.31;5074958;28;20086;-67
2023/03/04 06:35:38;;;;;;;18.98;3.60;;;;;;;4.05;100.00;102413.72;5072892;28;20210;-68
2023/03/04 06:38:03;;;;;;;18.77;3.53;;;;;;;4.02;100.00;102413.56;5072342;28;20082;-70
2023/03/04 06:40:28;;;;;;;19.77;3.35;;;;;;;4.03;100.00;102412.72;5072000;28;20086;-66
2023/03/04 06:42:54;;;;;;;19.10;3.63;;;;;;;4.05;100.00;102418.03;5072028;28;20067;-68
2023/03/04 06:45:19;;;;;;;16.60;3.60;;;;;;;4.03;100.00;102415.34;5072133;28;20036;-69
2023/03/04 06:47:44;;;;;;;18.40;3.40;;;;;;;4.05;100.00;102411.09;5071800;28;20040;-67
2023/03/04 06:50:11;;;;;;;18.58;3.60;;;;;;;4.01;100.00;102417.88;5071862;28;20024;-66
2023/03/04 06:52:37;;;;;;;20.38;3.75;;;;;;;4.03;100.00;102424.91;5072038;28;20029;-66
2023/03/04 06:55:03;;;;;;;20.88;4.22;;;;;;;4.04;100.00;102426.72;5071839;28;20472;-68
2023/03/04 06:57:29;;;;;;;17.65;3.50;;;;;;;4.05;100.00;102418.97;5074886;28;20032;-67
2023/03/04 06:59:54;;;;;;;18.73;3.55;;;;;;;4.05;100.00;102428.50;5075507;28;20368;-66
2023/03/04 07:02:20;;;;;;;17.90;3.85;;;;;;;4.03;100.00;102436.28;5075494;28;20375;-67
2023/03/04 07:04:45;;;;;;;18.90;3.58;;;;;;;4.06;100.00;102423.34;5075276;28;20044;-68
2023/03/04 07:07:11;;;;;;;16.48;3.63;;;;;;;4.05;100.00;102429.44;5075551;28;20648;-67
2023/03/04 07:09:36;;;;;;;18.90;3.63;;;;;;;4.05;100.00;102425.88;5075308;28;20033;-69
2023/03/04 07:12:03;;;;;;;17.83;3.60;;;;;;;4.02;100.00;102424.03;5075239;28;20380;-65
2023/03/04 07:14:28;;;;;;;19.55;3.40;;;;;;;4.08;100.00;102426.97;5075324;28;20033;-65
2023/03/04 07:16:54;;;;;;;19.42;3.75;;;;;;;4.07;100.00;102433.00;5075489;28;20397;-67
2023/03/04 07:19:20;;;;;;;18.92;3.65;;;;;;;4.08;100.00;102439.13;5075342;28;20416;-67
2023/03/04 07:21:46;;;;;;;18.08;3.90;;;;;;;4.08;100.00;102439.13;5075123;28;20471;-66
2023/03/04 07:24:11;;;;;;;18.40;3.70;;;;;;;4.14;100.00;102432.53;5075157;28;20083;-70
2023/03/04 07:26:37;;;;;;;19.67;3.78;;;;;;;4.19;100.00;102445.88;5075073;28;20028;-68
2023/03/04 07:29:03;;;;;;;18.90;4.00;;;;;;;4.24;100.00;102443.53;5075293;28;20029;-66
2023/03/04 07:31:31;;;;;;;16.83;3.72;;;;;;;4.23;100.00;102450.47;5073544;28;20029;-65
2023/03/04 07:33:59;;;;;;;20.30;3.90;;;;;;;4.31;100.00;102456.13;5074973;28;20035;-68
2023/03/04 07:36:25;;;;;;;17.98;3.92;;;;;;;4.35;100.00;102447.63;5074929;28;20027;-66
2023/03/04 07:38:53;;;;;;;18.63;3.83;;;;;;;4.41;100.00;102460.19;5074803;28;20032;-66
2023/03/04 07:41:19;;;;;;;18.00;3.85;;;;;;;4.40;100.00;102459.28;5070677;28;20067;-66
2023/03/04 07:43:44;;;;;;;18.77;4.10;;;;;;;4.36;100.00;102466.06;5074946;28;20060;-66
2023/03/04 07:46:10;;;;;;;20.95;4.30;;;;;;;4.39;100.00;102460.09;5074640;28;20491;-66
2023/03/04 07:48:36;;;;;;;17.35;3.60;;;;;;;4.38;100.00;102460.91;5074470;28;20062;-66
2023/03/04 07:51:13;;;;;;;19.60;4.22;;;;;;;4.45;100.00;102465.66;5074966;28;20036;-66
2023/03/04 07:53:41;;;;;;;19.98;4.40;;;;;;;4.46;100.00;102466.59;5074433;28;20025;-69
2023/03/04 07:56:10;;;;;;;22.75;4.80;;;;;;;4.52;100.00;102470.41;5074438;28;20132;-69
2023/03/04 07:58:35;;;;;;;20.75;4.55;;;;;;;4.43;100.00;102469.94;5074724;28;20035;-71
2023/03/04 08:01:08;;;;;;;21.17;4.88;;;;;;;4.49;100.00;102465.03;5074223;28;20032;-72
2023/03/04 08:03:33;;;;;;;18.95;4.50;;;;;;;4.49;100.00;102474.59;5074340;28;20059;-65
2023/03/04 08:05:59;;;;;;;19.30;4.40;;;;;;;4.43;100.00;102469.03;5074265;28;20509;-65
2023/03/04 08:08:24;;;;;;;18.30;4.30;;;;;;;4.46;100.00;102471.81;5073282;28;20032;-66
2023/03/04 08:10:49;;;;;;;21.33;4.70;;;;;;;4.47;100.00;102470.97;5074282;28;20470;-69
2023/03/04 08:13:15;;;;;;;20.00;4.40;;;;;;;4.54;100.00;102468.81;5074189;28;20114;-66
2023/03/04 08:15:41;;;;;;;19.88;4.50;;;;;;;4.57;100.00;102468.03;5074247;28;20467;-68
2023/03/04 08:18:07;;;;;;;19.67;4.28;;;;;;;4.58;100.00;102469.88;5073935;28;20112;-70
2023/03/04 08:20:32;;;;;;;20.95;4.60;;;;;;;4.56;100.00;102467.97;5074128;28;20496;-73
2023/03/04 08:22:58;;;;;;;20.55;4.43;;;;;;;4.65;100.00;102478.97;5073824;28;20031;-65
2023/03/04 08:25:23;;;;;;;20.88;4.90;;;;;;;4.64;100.00;102474.53;5072282;28;20029;-65
2023/03/04 08:27:48;;;;;;;20.80;4.63;;;;;;;4.75;100.00;102472.50;5074085;28;20047;-66
2023/03/04 08:30:14;;;;;;;19.55;4.60;;;;;;;4.72;100.00;102473.25;5073737;28;20025;-70
2023/03/04 08:32:39;;;;;;;19.50;4.63;;;;;;;4.78;100.00;102478.81;5073608;28;20060;-68
2023/03/04 08:35:05;;;;;;;19.63;4.53;;;;;;;4.82;100.00;102475.53;5073826;28;20036;-69
2023/03/04 08:37:30;;;;;;;20.98;4.22;;;;;;;4.96;100.00;102473.66;5073563;28;20024;-71
2023/03/04 08:39:56;;;;;;;20.48;4.43;;;;;;;5.04;100.00;102484.56;5073552;28;20369;-69
2023/03/04 08:42:23;;;;;;;19.38;4.22;;;;;;;5.32;100.00;102472.91;5073655;28;20049;-67
2023/03/04 08:44:48;;;;;;;20.88;4.90;;;;;;;5.55;100.00;102479.31;5069331;28;20032;-66
2023/03/04 08:47:14;;;;;;;18.35;3.92;;;;;;;5.68;100.00;102478.19;5073553;28;20025;-67
2023/03/04 08:49:39;;;;;;;19.13;3.90;;;;;;;5.67;100.00;102476.41;5073324;28;20074;-66
2023/03/04 08:52:04;;;;;;;19.30;4.10;;;;;;;5.83;100.00;102481.59;5073239;28;20039;-67
2023/03/04 08:54:30;;;;;;;19.65;4.00;;;;;;;6.17;100.00;102479.78;5073743;28;20422;-68
2023/03/04 08:56:55;;;;;;;17.60;3.95;;;;;;;6.30;100.00;102481.25;5073327;28;20076;-67
2023/03/04 08:59:20;;;;;;;19.60;4.15;;;;;;;6.47;100.00;102476.81;5073405;28;20123;-67
2023/03/04 09:01:46;;;;;;;18.35;3.85;;;;;;;6.81;100.00;102471.38;5073268;28;20107;-66
2023/03/04 09:04:11;;;;;;;18.98;4.13;;;;;;;6.93;100.00;102464.06;5073025;28;20040;-66
2023/03/04 09:06:37;;;;;;;18.10;3.88;;;;;;;6.97;100.00;102473.91;5072908;28;20082;-70
2023/03/04 09:09:03;;;;;;;14.88;3.80;;;;;;;7.10;100.00;102474.44;5073359;28;20085;-67
2023/03/04 09:11:29;;;;;;;17.38;3.92;;;;;;;7.10;100.00;102466.53;5072873;28;20070;-68
2023/03/04 09:13:54;;;;;;;18.85;3.70;;;;;;;7.04;100.00;102469.78;5072922;28;20025;-67
2023/03/04 09:16:19;;;;;;;19.33;3.85;;;;;;;7.02;100.00;102468.84;5073165;28;20488;-66
2023/03/04 09:18:45;;;;;;;19.25;3.70;;;;;;;7.12;100.00;102460.53;5072814;28;20081;-66
2023/03/04 09:21:11;;;;;;;16.90;3.80;;;;;;;7.32;100.00;102458.78;5072914;28;20028;-67
2023/03/04 09:23:36;;;;;;;14.77;3.38;;;;;;;7.29;100.00;102460.34;5072799;28;20056;-68
2023/03/04 09:26:16;;;;;;;17.90;3.92;;;;;;;7.63;100.00;102461.78;5072729;28;20044;-68
2023/03/04 09:28:42;;;;;;;16.45;3.88;;;;;;;7.75;100.00;102450.91;5072640;28;20029;-66
2023/03/04 09:31:11;;;;;;;19.10;3.72;;;;;;;7.56;100.00;102455.41;5072735;28;20070;-72
2023/03/04 09:33:37;;;;;;;15.77;3.50;;;;;;;7.47;100.00;102449.72;5072524;28;20024;-66
2023/03/04 09:36:03;;;;;;;15.75;3.72;;;;;;;7.51;100.00;102451.66;5072522;28;20086;-68
2023/03/04 09:38:28;;;;;;;14.40;3.30;;;;;;;7.63;100.00;102446.00;5072747;28;20029;-67
2023/03/04 09:40:53;;;;;;;17.60;3.45;;;;;;;7.59;100.00;102446.75;5072613;28;20044;-67
2023/03/04 09:43:23;;;;;;;17.33;3.42;;;;;;;8.10;100.00;102447.06;5072677;28;20093;-69
2023/03/04 09:45:54;;;;;;;14.70;3.30;;;;;;;8.47;100.00;102455.56;5068650;28;20032;-71
2023/03/04 09:48:23;;;;;;;12.98;3.35;;;;;;;8.61;100.00;102448.19;5068746;28;20024;-67
2023/03/04 09:51:07;;;;;;;15.82;3.35;;;;;;;8.47;100.00;102451.16;5068595;28;20029;-68
2023/03/04 09:54:07;;;;;;;16.30;3.08;;;;;;;8.36;100.00;102442.81;5070244;28;20024;-69
2023/03/04 09:56:37;;;;;;;14.32;3.13;;;;;;;8.20;100.00;102443.06;5070312;28;20029;-65
2023/03/04 09:59:17;;;;;;;17.15;3.13;;;;;;;8.07;100.00;102443.41;5072260;28;20063;-67
2023/03/04 10:01:52;;;;;;;13.07;2.72;;;;;;;7.77;100.00;102443.97;5072386;28;20036;-66
2023/03/04 10:04:36;;;;;;;11.73;2.60;;;;;;;7.57;100.00;102446.66;5072223;28;20036;-65
2023/03/04 10:07:02;;;;;;;11.38;2.80;;;;;;;7.59;100.00;102445.00;5070059;28;20104;-72
2023/03/04 10:09:46;;;;;;;12.43;2.78;;;;;;;7.89;100.00;102454.97;5072439;28;20471;-71
2023/03/04 10:12:16;;;;;;;13.07;3.10;;;;;;;7.70;100.00;102441.91;5072436;28;20029;-65
2023/03/04 10:15:01;;;;;;;13.45;3.10;;;;;;;7.95;100.00;102446.44;5072193;28;20052;-66
2023/03/04 10:17:38;;;;;;;17.65;3.50;;;;;;;8.10;100.00;102446.19;5069242;28;20028;-65
2023/03/04 10:20:26;;;;;;;13.20;3.20;;;;;;;8.83;100.00;102449.88;5072258;28;20086;-65
2023/03/04 10:23:09;;;;;;;12.73;3.20;;;;;;;9.60;100.00;102444.69;5064337;28;20017;-68
2023/03/04 10:25:40;;;;;;;10.50;2.88;;;;;;;10.37;100.00;102449.81;5065939;28;20028;-65
2023/03/04 10:28:17;;;;;;;13.90;3.05;;;;;;;10.94;100.00;102442.66;5072364;28;20064;-66
2023/03/04 10:31:04;;;;;;;15.50;3.30;;;;;;;10.87;100.00;102436.31;5073035;28;20408;-69
2023/03/04 10:33:36;;;;;;;16.45;3.35;;;;;;;10.36;100.00;102436.56;5073639;28;20075;-66
2023/03/04 10:36:28;;;;;;;13.95;3.10;;;;;;;9.57;100.00;102434.91;5076104;28;20418;-65
2023/03/04 10:38:58;;;;;;;10.65;2.90;;;;;;;8.99;100.00;102424.97;5072713;28;20025;-65
2023/03/04 10:41:27;;;;;;;14.77;2.90;;;;;;;8.60;100.00;102430.56;5072241;28;20041;-67
2023/03/04 10:43:58;;;;;;;13.13;3.00;;;;;;;8.07;100.00;102417.06;5075779;28;20071;-66
2023/03/04 10:46:24;;;;;;;10.27;2.90;;;;;;;7.96;100.00;102422.78;5072421;28;20490;-67
2023/03/04 10:48:50;;;;;;;16.55;3.17;;;;;;;7.89;100.00;102420.75;5075646;28;20028;-65
2023/03/04 10:51:23;;;;;;;13.90;3.10;;;;;;;7.81;100.00;102424.81;5075645;28;20039;-65
2023/03/04 10:53:59;;;;;;;15.05;3.42;;;;;;;7.67;100.00;102430.44;5071714;28;20360;-68
2023/03/04 10:56:44;;;;;;;12.70;3.03;;;;;;;7.48;100.00;102418.25;5072420;28;20050;-66
2023/03/04 10:59:52;;;;;;;15.63;3.22;;;;;;;7.24;100.00;102423.34;5075790;28;20119;-65
2023/03/04 11:02:29;;;;;;;14.35;3.20;;;;;;;7.07;100.00;102416.44;5075195;28;20028;-65
2023/03/04 11:04:55;;;;;;;13.73;3.50;;;;;;;7.08;100.00;102419.13;5072004;28;20028;-65
2023/03/04 11:07:25;;;;;;;12.95;3.22;;;;;;;7.08;100.00;102420.88;5075632;28;20100;-67
2023/03/04 11:09:51;;;;;;;13.68;3.15;;;;;;;7.08;100.00;102415.63;5071409;28;20398;-65
2023/03/04 11:12:19;;;;;;;13.73;3.13;;;;;;;7.07;100.00;102406.81;5075180;28;20035;-65
2023/03/04 11:14:48;;;;;;;15.05;3.30;;;;;;;7.10;100.00;102417.47;5075436;28;20378;-65
2023/03/04 11:17:40;;;;;;;14.20;3.10;;;;;;;7.12;100.00;102409.63;5075158;28;20021;-65